地図

経路データ

SID SEASON NUMBER BASIN SUBBASIN NAME ISO_TIME NATURE LAT LON WMO_WIND WMO_PRES WMO_AGENCY TRACK_TYPE DIST2LAND LANDFALL IFLAG USA_AGENCY USA_ATCF_ID USA_LAT USA_LON USA_RECORD USA_STATUS USA_WIND USA_PRES USA_SSHS USA_R34_NE USA_R34_SE USA_R34_SW USA_R34_NW USA_R50_NE USA_R50_SE USA_R50_SW USA_R50_NW USA_R64_NE USA_R64_SE USA_R64_SW USA_R64_NW USA_POCI USA_ROCI USA_RMW USA_EYE TOKYO_LAT TOKYO_LON TOKYO_GRADE TOKYO_WIND TOKYO_PRES TOKYO_R50_DIR TOKYO_R50_LONG TOKYO_R50_SHORT TOKYO_R30_DIR TOKYO_R30_LONG TOKYO_R30_SHORT TOKYO_LAND CMA_LAT CMA_LON CMA_CAT CMA_WIND CMA_PRES HKO_LAT HKO_LON HKO_CAT HKO_WIND HKO_PRES NEWDELHI_LAT NEWDELHI_LON NEWDELHI_GRADE NEWDELHI_WIND NEWDELHI_PRES NEWDELHI_CI NEWDELHI_DP NEWDELHI_POCI REUNION_LAT REUNION_LON REUNION_TYPE REUNION_WIND REUNION_PRES REUNION_TNUM REUNION_CI REUNION_RMW REUNION_R34_NE REUNION_R34_SE REUNION_R34_SW REUNION_R34_NW REUNION_R50_NE REUNION_R50_SE REUNION_R50_SW REUNION_R50_NW REUNION_R64_NE REUNION_R64_SE REUNION_R64_SW REUNION_R64_NW BOM_LAT BOM_LON BOM_TYPE BOM_WIND BOM_PRES BOM_TNUM BOM_CI BOM_RMW BOM_R34_NE BOM_R34_SE BOM_R34_SW BOM_R34_NW BOM_R50_NE BOM_R50_SE BOM_R50_SW BOM_R50_NW BOM_R64_NE BOM_R64_SE BOM_R64_SW BOM_R64_NW BOM_ROCI BOM_POCI BOM_EYE BOM_POS_METHOD BOM_PRES_METHOD NADI_LAT NADI_LON NADI_CAT NADI_WIND NADI_PRES WELLINGTON_LAT WELLINGTON_LON WELLINGTON_WIND WELLINGTON_PRES DS824_LAT DS824_LON DS824_STAGE DS824_WIND DS824_PRES TD9636_LAT TD9636_LON TD9636_STAGE TD9636_WIND TD9636_PRES TD9635_LAT TD9635_LON TD9635_WIND TD9635_PRES TD9635_ROCI NEUMANN_LAT NEUMANN_LON NEUMANN_CLASS NEUMANN_WIND NEUMANN_PRES MLC_LAT MLC_LON MLC_CLASS MLC_WIND MLC_PRES USA_GUST BOM_GUST BOM_GUST_PER REUNION_GUST REUNION_GUST_PER USA_SEAHGT USA_SEARAD_NE USA_SEARAD_SE USA_SEARAD_SW USA_SEARAD_NW STORM_SPEED STORM_DIR
1879080S11064 1879 6 SI MM NOT_NAMED 1879-03-20 18:00:00 NR -10.5000 63.8000 main 1257 1242 __________O___ -1 -10.5000 63.8000 7 3 221
1879080S11064 1879 6 SI MM NOT_NAMED 1879-03-20 21:00:00 NR -10.6203 63.6922 main 1242 1227 __________P___ -1 -10.6203 63.6922 7 3 222
1879080S11064 1879 6 SI MM NOT_NAMED 1879-03-21 00:00:00 NR -10.7425 63.5775 main 1227 1202 __________P___ -1 -10.7425 63.5775 7 3 224
1879080S11064 1879 6 SI MM NOT_NAMED 1879-03-21 03:00:00 NR -10.8684 63.4491 main 1196 1196 __________P___ -1 -10.8684 63.4491 7 2 221
1879080S11064 1879 6 SI MM NOT_NAMED 1879-03-21 06:00:00 NR -10.8800 63.4600 reunion main 1202 1196 _____O____O___ -1 -10.4000 64.1000 99 9.90000 -11.0000 63.3000 7 1 224
1879080S11064 1879 6 SI MM NOT_NAMED 1879-03-21 09:00:00 NR -10.9173 63.4184 main 1196 1187 _____P____P___ -1 -10.4744 64.0041 99 -11.1388 63.1256 7 1 231
1879080S11064 1879 6 SI MM NOT_NAMED 1879-03-21 12:00:00 NR -10.9700 63.3485 main 1181 1181 _____P____P___ -1 -10.5501 63.9066 99 -11.2850 62.9299 7 2 233
1879080S11064 1879 6 SI MM NOT_NAMED 1879-03-21 15:00:00 NR -11.0335 63.2626 main 1181 1161 _____P____P___ -1 -10.6282 63.8059 99 -11.4387 62.7193 7 3 233
1879080S11064 1879 6 SI MM NOT_NAMED 1879-03-21 18:00:00 NR -11.1551 63.1002 main 1151 1136 _____P____O___ -1 -10.7101 63.7004 99 -11.6000 62.5000 7 4 232
1879080S11064 1879 6 SI MM NOT_NAMED 1879-03-21 21:00:00 NR -11.2742 62.9455 main 1131 1116 _____P____P___ -1 -10.7970 63.5887 99 -11.7514 62.3022 7 4 232
1879080S11064 1879 6 SI MM NOT_NAMED 1879-03-22 00:00:00 NR -11.4012 62.7818 main 1116 1095 _____P____P___ -1 -10.8901 63.4691 99 -11.9123 62.0945 7 4 232
1879080S11064 1879 6 SI MM NOT_NAMED 1879-03-22 03:00:00 NR -11.5413 62.6023 main 1095 1065 _____P____P___ -1 -10.9907 63.3401 99 -12.0920 61.8646 7 5 231
1879080S11064 1879 6 SI MM NOT_NAMED 1879-03-22 06:00:00 NR -11.7000 62.4000 reunion main 1065 1035 _____O____O___ -1 -11.1000 63.2000 99 9.90000 -12.3000 61.6000 7 6 232
1879080S11064 1879 6 SI MM NOT_NAMED 1879-03-22 09:00:00 NR -11.8849 62.1567 main 1035 1001 _____P____P___ -1 -11.2192 63.0475 99 -12.5505 61.2659 7 6 232
1879080S11064 1879 6 SI MM NOT_NAMED 1879-03-22 12:00:00 NR -12.0885 61.8913 main 1001 967 _____P____P___ -1 -11.3492 62.8821 99 -12.8278 60.9004 7 7 232
1879080S11064 1879 6 SI MM NOT_NAMED 1879-03-22 15:00:00 NR -12.3035 61.6190 main 967 937 _____P____P___ -1 -11.4907 62.7035 99 -13.1162 60.5346 7 7 230
1879080S11064 1879 6 SI MM NOT_NAMED 1879-03-22 18:00:00 NR -12.5223 61.3556 main 937 904 _____P____O___ -1 -11.6446 62.5113 99 -13.4000 60.2000 7 6 228
1879080S11064 1879 6 SI MM NOT_NAMED 1879-03-22 21:00:00 NR -12.7281 61.1340 main 904 874 _____P____P___ -1 -11.8117 62.3052 99 -13.6446 59.9628 7 6 226
1879080S11064 1879 6 SI MM NOT_NAMED 1879-03-23 00:00:00 NR -12.9386 60.9207 main 874 846 _____P____P___ -1 -11.9928 62.0848 99 -13.8844 59.7565 7 6 224
1879080S11064 1879 6 SI MM NOT_NAMED 1879-03-23 03:00:00 NR -13.1603 60.6985 main 835 806 _____P____P___ -1 -12.1886 61.8499 99 -14.1320 59.5471 7 7 225
1879080S11064 1879 6 SI MM NOT_NAMED 1879-03-23 06:00:00 NR -13.4000 60.4500 reunion main 806 774 _____O____O___ -1 -12.4000 61.6000 99 9.90000 -14.4000 59.3000 7 7 227
1879080S11064 1879 6 SI MM NOT_NAMED 1879-03-23 09:00:00 NR -13.6547 60.1493 main 760 728 _____P____P___ -1 -12.6139 61.3426 99 -14.6956 58.9561 7 8 229
1879080S11064 1879 6 SI MM NOT_NAMED 1879-03-23 12:00:00 NR -13.9280 59.8208 main 728 687 _____P____P___ -1 -12.8432 61.0690 99 -15.0129 58.5726 7 9 229
1879080S11064 1879 6 SI MM NOT_NAMED 1879-03-23 15:00:00 NR -14.2179 59.4796 main 687 646 _____P____P___ -1 -13.0872 60.7813 99 -15.3487 58.1778 7 9 228
1879080S11064 1879 6 SI MM NOT_NAMED 1879-03-23 18:00:00 NR -14.5225 59.1406 main 644 604 _____P____O___ -1 -13.3450 60.4813 99 -15.7000 57.8000 7 9 226
1879080S11064 1879 6 SI MM NOT_NAMED 1879-03-23 21:00:00 NR -14.8422 58.8226 main 604 554 _____P____P___ -1 -13.6160 60.1712 99 -16.0685 57.4741 7 9 223
1879080S11064 1879 6 SI MM NOT_NAMED 1879-03-24 00:00:00 NR -15.1745 58.5113 main 554 517 _____P____P___ -1 -13.8993 59.8529 99 -16.4497 57.1697 7 9 222
1879080S11064 1879 6 SI MM NOT_NAMED 1879-03-24 03:00:00 NR -15.5126 58.2044 main 517 481 _____P____P___ -1 -14.1942 59.5285 99 -16.8310 56.8804 7 9 221
1879080S11064 1879 6 SI MM NOT_NAMED 1879-03-24 06:00:00 NR -15.8500 57.9000 reunion main 481 436 _____O____O___ -1 -14.5000 59.2000 99 9.90000 -17.2000 56.6000 7 9 222
1879080S11064 1879 6 SI MM NOT_NAMED 1879-03-24 09:00:00 NR -16.1725 57.5833 main 436 403 _____P____P___ -1 -14.8098 58.8614 99 -17.5352 56.3053 7 9 223
1879080S11064 1879 6 SI MM NOT_NAMED 1879-03-24 12:00:00 NR -16.4948 57.2671 main 403 372 _____P____P___ -1 -15.1322 58.5146 99 -17.8574 56.0196 7 9 223
1879080S11064 1879 6 SI MM NOT_NAMED 1879-03-24 15:00:00 NR -16.8205 56.9564 main 372 346 _____P____P___ -1 -15.4650 58.1637 99 -18.1759 55.7491 7 9 222
1879080S11064 1879 6 SI MM NOT_NAMED 1879-03-24 18:00:00 NR -17.1528 56.6566 main 335 313 _____P____O___ -1 -15.8057 57.8132 99 -18.5000 55.5000 7 9 219
1879080S11064 1879 6 SI MM NOT_NAMED 1879-03-24 21:00:00 NR -17.5095 56.3647 main 313 291 _____P____P___ -1 -16.1518 57.4672 99 -18.8671 55.2622 7 9 217
1879080S11064 1879 6 SI MM NOT_NAMED 1879-03-25 00:00:00 NR -17.8693 56.0888 main 286 270 _____P____P___ -1 -16.5011 57.1300 99 -19.2374 55.0476 7 9 216
1879080S11064 1879 6 SI MM NOT_NAMED 1879-03-25 03:00:00 NR -18.2202 55.8327 main 277 260 _____P____P___ -1 -16.8513 56.8062 99 -19.5890 54.8592 7 8 214
1879080S11064 1879 6 SI MM NOT_NAMED 1879-03-25 06:00:00 NR -18.5500 55.6000 reunion main 267 246 _____O____O___ -1 -17.2000 56.5000 99 9.90000 -19.9000 54.7000 7 8 214
1879080S11064 1879 6 SI MM NOT_NAMED 1879-03-25 09:00:00 NR -18.8476 55.3836 main 246 212 _____P____P___ -1 -17.5562 56.2004 99 -20.1389 54.5667 7 7 214
1879080S11064 1879 6 SI MM NOT_NAMED 1879-03-25 12:00:00 NR -19.1262 55.1884 main 212 181 _____P____P___ -1 -17.9150 55.9149 99 -20.3373 54.4619 7 7 213
1879080S11064 1879 6 SI MM NOT_NAMED 1879-03-25 15:00:00 NR -19.3947 55.0107 main 181 162 _____P____P___ -1 -18.2724 55.6452 99 -20.5171 54.3762 7 6 211
1879080S11064 1879 6 SI MM NOT_NAMED 1879-03-25 18:00:00 NR -19.6622 54.8466 main 154 137 _____P____O___ -1 -18.6244 55.3932 99 -20.7000 54.3000 7 6 209
1879080S11064 1879 6 SI MM NOT_NAMED 1879-03-25 21:00:00 NR -19.9526 54.6832 main 128 115 _____P____P___ -1 -18.9671 55.1607 99 -20.9381 54.2057 7 6 207
1879080S11064 1879 6 SI MM NOT_NAMED 1879-03-26 00:00:00 NR -20.2383 54.5349 main 122 106 _____P____P___ -1 -19.2966 54.9497 99 -21.1800 54.1201 7 6 205
1879080S11064 1879 6 SI MM NOT_NAMED 1879-03-26 03:00:00 NR -20.5079 54.4058 main 106 100 _____P____P___ -1 -19.6089 54.7621 99 -21.4069 54.0495 7 6 203
1879080S11064 1879 6 SI MM NOT_NAMED 1879-03-26 06:00:00 NR -20.7500 54.3000 reunion main 103 96 _____O____O___ -1 -19.9000 54.6000 99 9.90000 -21.6000 54.0000 7 5 201
1879080S11064 1879 6 SI MM NOT_NAMED 1879-03-26 09:00:00 NR -20.9578 54.2161 main 104 103 _____P____P___ -1 -20.1757 54.4539 99 -21.7400 53.9783 7 4 200
1879080S11064 1879 6 SI MM NOT_NAMED 1879-03-26 12:00:00 NR -21.1388 54.1559 main 103 103 _____P____P___ -1 -20.4326 54.3345 99 -21.8450 53.9773 7 4 195
1879080S11064 1879 6 SI MM NOT_NAMED 1879-03-26 15:00:00 NR -21.2993 54.1131 main 116 116 _____P____P___ -1 -20.6710 54.2386 99 -21.9275 53.9877 7 3 192
1879080S11064 1879 6 SI MM NOT_NAMED 1879-03-26 18:00:00 NR -21.4457 54.0815 main 118 118 _____P____O___ -1 -20.8915 54.1630 99 -22.0000 54.0000 7 3 191
1879080S11064 1879 6 SI MM NOT_NAMED 1879-03-26 21:00:00 NR -21.5598 54.0503 main 126 126 _____P____P___ -1 -21.0942 54.1046 99 -22.0253 53.9960 7 2 194
1879080S11064 1879 6 SI MM NOT_NAMED 1879-03-27 00:00:00 NR -21.6661 54.0263 main 141 141 _____P____P___ -1 -21.2797 54.0601 99 -22.0525 53.9926 7 2 188
1879080S11064 1879 6 SI MM NOT_NAMED 1879-03-27 03:00:00 NR -21.7883 54.0096 main 145 145 _____P____P___ -1 -21.4482 54.0263 99 -22.1284 53.9929 7 3 0
1879080S11064 1879 6 SI MM NOT_NAMED 1879-03-27 06:00:00 NR -21.9500 54.0000 reunion main 150 155 _____O____O___ -1 -21.6000 54.0000 99 9.90000 -22.3000 54.0000 7 4 185
1879080S11064 1879 6 SI MM NOT_NAMED 1879-03-27 09:00:00 NR -22.1601 53.9754 main 167 167 _____P____P___ -1 -21.6959 53.9490 99 -22.6244 54.0019 7 5 185
1879080S11064 1879 6 SI MM NOT_NAMED 1879-03-27 12:00:00 NR -22.4061 53.9599 main 181 181 _____P____P___ -1 -21.7671 53.9069 99 -23.0450 54.0130 7 5 183
1879080S11064 1879 6 SI MM NOT_NAMED 1879-03-27 15:00:00 NR -22.6724 53.9586 main 206 206 _____P____P___ -1 -21.8267 53.8746 99 -23.5181 54.0426 7 5 178
1879080S11064 1879 6 SI MM NOT_NAMED 1879-03-27 18:00:00 NR -22.9437 53.9767 main 223 223 _____P____O___ -1 -21.8874 53.8534 99 -24.0000 54.1000 7 5 173
1879080S11064 1879 6 SI MM NOT_NAMED 1879-03-27 21:00:00 NR -23.1997 54.0141 main 251 251 _____P____P___ -1 -21.9622 53.8442 99 -24.4371 54.1840 7 5 170
1879080S11064 1879 6 SI MM NOT_NAMED 1879-03-28 00:00:00 NR -23.4682 54.0729 main 275 275 _____P____P___ -1 -22.0640 53.8482 99 -24.8724 54.2975 7 6 167
1879080S11064 1879 6 SI MM NOT_NAMED 1879-03-28 03:00:00 NR -23.7511 54.1519 main 301 301 _____P____P___ -1 -22.2056 53.8664 99 -25.2965 54.4373 7 6 164
1879080S11064 1879 6 SI MM NOT_NAMED 1879-03-28 06:00:00 NR -24.0500 54.2500 reunion main 318 322 _____O____O___ -1 -22.4000 53.9000 99 9.90000 -25.7000 54.6000 7 7 164
1879080S11064 1879 6 SI MM NOT_NAMED 1879-03-28 09:00:00 NR -24.3888 54.3530 main 357 357 _____P____P___ -1 -22.6979 53.9314 99 -26.0797 54.7745 7 7 164
1879080S11064 1879 6 SI MM NOT_NAMED 1879-03-28 12:00:00 NR -24.7425 54.4738 main 385 385 _____P____P___ -1 -23.0476 53.9774 99 -26.4375 54.9702 7 8 162
1879080S11064 1879 6 SI MM NOT_NAMED 1879-03-28 15:00:00 NR -25.1072 54.6098 main 425 425 _____P____P___ -1 -23.4378 54.0387 99 -26.7765 55.1808 7 8 161
1879080S11064 1879 6 SI MM NOT_NAMED 1879-03-28 18:00:00 NR -25.4786 54.7580 main 465 465 _____P____O___ -1 -23.8572 54.1161 99 -27.1000 55.4000 7 8 161
1879080S11064 1879 6 SI MM NOT_NAMED 1879-03-28 21:00:00 NR -25.8440 54.8985 main 496 496 _____P____P___ -1 -24.2944 54.2101 99 -27.3936 55.5868 7 8 160
1879080S11064 1879 6 SI MM NOT_NAMED 1879-03-29 00:00:00 NR -26.2074 55.0533 main 538 538 _____P____P___ -1 -24.7382 54.3217 99 -27.6767 55.7849 7 8 158
1879080S11064 1879 6 SI MM NOT_NAMED 1879-03-29 03:00:00 NR -26.5743 55.2334 main 582 581 _____P____P___ -1 -25.1771 54.4514 99 -27.9715 56.0154 7 8 155
1879080S11064 1879 6 SI MM NOT_NAMED 1879-03-29 06:00:00 NR -26.9500 55.4500 reunion main 614 625 _____O____O___ -1 -25.6000 54.6000 99 9.90000 -28.3000 56.3000 7 9 151
1879080S11064 1879 6 SI MM NOT_NAMED 1879-03-29 09:00:00 NR -27.3259 55.6962 main 659 659 _____P____P___ -1 -25.9504 54.7336 99 -28.7014 56.6587 7 9 148
1879080S11064 1879 6 SI MM NOT_NAMED 1879-03-29 12:00:00 NR -27.7121 55.9792 main 705 705 _____P____P___ -1 -26.2891 54.8842 99 -29.1352 57.0742 7 9 146
1879080S11064 1879 6 SI MM NOT_NAMED 1879-03-29 15:00:00 NR -28.0982 56.2911 main 751 751 _____P____P___ -1 -26.6200 55.0544 99 -29.5763 57.5277 7 10 143
1879080S11064 1879 6 SI MM NOT_NAMED 1879-03-29 18:00:00 NR -28.4736 56.6236 main 799 799 _____P____O___ -1 -26.9473 55.2471 99 -30.0000 58.0000 7 9 141
1879080S11064 1879 6 SI MM NOT_NAMED 1879-03-29 21:00:00 NR -28.8313 56.9698 main 838 838 _____P____P___ -1 -27.2749 55.4651 99 -30.3876 58.4745 7 6 139
1879080S11064 1879 6 SI MM NOT_NAMED 1879-03-30 00:00:00 NR -28.9512 57.0987 main 862 862 _____P____P___ -1 -27.6069 55.7112 99 -30.7435 58.9486 7 2 138
1879080S11064 1879 6 SI MM NOT_NAMED 1879-03-30 03:00:00 NR -28.9907 57.1334 main 862 849 _____P____P___ -1 -27.9473 55.9885 99 -31.0776 59.4234 7 1 293
1879080S11064 1879 6 SI MM NOT_NAMED 1879-03-30 06:00:00 NR -28.9200 57.0200 reunion main 849 823 _____O____O___ -1 -28.3000 56.3000 99 9.90000 -31.4000 59.9000 7 5 305
1879080S11064 1879 6 SI MM NOT_NAMED 1879-03-30 09:00:00 NR -28.7233 56.6939 main 823 823 _____P________ -1 -28.7233 56.6939 99 7 3 157
1879080S11064 1879 6 SI MM NOT_NAMED 1879-03-30 12:00:00 NR -29.1624 57.1318 main 884 884 _____P________ -1 -29.1624 57.1318 99 7 12 138
1879080S11064 1879 6 SI MM NOT_NAMED 1879-03-30 15:00:00 NR -29.6059 57.5987 main 937 937 _____P________ -1 -29.6059 57.5987 99 7 12 137
1879080S11064 1879 6 SI MM NOT_NAMED 1879-03-30 18:00:00 NR -30.0424 58.0787 main 992 992 _____P________ -1 -30.0424 58.0787 99 12 136
1879080S11064 1879 6 SI MM NOT_NAMED 1879-03-30 21:00:00 NR -30.4609 58.5558 main 1059 1059 _____P________ -1 -30.4609 58.5558 99 11 135
1879080S11064 1879 6 SI MM NOT_NAMED 1879-03-31 00:00:00 NR -30.8503 59.0132 main 1113 1113 _____P________ -1 -30.8503 59.0132 99 11 134
1879080S11064 1879 6 SI MM NOT_NAMED 1879-03-31 03:00:00 NR -31.2002 59.4338 main 1157 1157 _____P________ -1 -31.2002 59.4338 99 9 134
1879080S11064 1879 6 SI MM NOT_NAMED 1879-03-31 06:00:00 NR -31.5000 59.8000 reunion main 1202 1202 _____O________ -1 -31.5000 59.8000 99 9.90000 8 134
1879080S11064 1879 6 SI MM NOT_NAMED 1879-03-31 09:00:00 NR -31.7425 60.0985 main 1233 1233 _____P________ -1 -31.7425 60.0985 99 6 134
1879080S11064 1879 6 SI MM NOT_NAMED 1879-03-31 12:00:00 NR -31.9327 60.3333 main 1261 1261 _____P________ -1 -31.9327 60.3333 99 5 134
1879080S11064 1879 6 SI MM NOT_NAMED 1879-03-31 15:00:00 NR -32.0782 60.5129 main 1289 1289 _____P________ -1 -32.0782 60.5129 99 4 134
1879080S11064 1879 6 SI MM NOT_NAMED 1879-03-31 18:00:00 NR -32.1868 60.6462 main 1303 1303 _____P________ -1 -32.1868 60.6462 99 3 134
1879080S11064 1879 6 SI MM NOT_NAMED 1879-03-31 21:00:00 NR -32.2658 60.7423 main 1317 1317 _____P________ -1 -32.2658 60.7423 99 2 135
1879080S11064 1879 6 SI MM NOT_NAMED 1879-04-01 00:00:00 NR -32.3228 60.8105 main 1321 1321 _____P________ -1 -32.3228 60.8105 99 1 136
1879080S11064 1879 6 SI MM NOT_NAMED 1879-04-01 03:00:00 NR -32.3651 60.8599 main 1335 1335 _____P________ -1 -32.3651 60.8599 99 1 134
1879080S11064 1879 6 SI MM NOT_NAMED 1879-04-01 06:00:00 NR -32.4000 60.9000 reunion main 1335 _____O________ -1 -32.4000 60.9000 99 9.90000 1 129

IBTrACS Databaseについて

本データベースは、米国NOAAが公開する1842年以降の世界の熱帯低気圧のベストトラックデータアーカイブInternational Best Track Archive for Climate Stewardship (IBTrACS)を、ウェブで閲覧しやすい形式に変換したものです。

最終更新日:2021-11-26